Buena Esperanza, Argentina
Current Conditions -  °F | °C
As of 7:00 AM on Monday 22 Dec 2014 (Local Time) from SAOC Reporting Station
Clear Clear  
Wind Chill: 50°   Ceiling: Unl
Heat Index: 50°   Visibility: 6mi
Dew Point: 34°   Wind: 7mph
Humidity: 54%   Direction: 230°SW
Pressure: 30.12"   Gusts: NA
Location:  34.75°S, 65.25°W
Report Text: SAOC 221000Z 23006KT CAVOK 10/01 Q1020
Loading
Personal Weather Stations






























Interactive Weather Map New forecast layout! Learn more

10-Day Weather Forecast

Advertisements
Track Severe Weather on mobile